sensor_id;sensor_type;location;lat;lon;timestamp;P1;durP1;ratioP1;P2;durP2;ratioP2
53618;SDS011;68717;53.040;18.488;2024-01-15T00:00:09;13.60;;;7.40;;
53618;SDS011;68717;53.040;18.488;2024-01-15T00:00:24;14.45;;;7.65;;
53618;SDS011;68717;53.040;18.488;2024-01-15T00:00:57;12.85;;;7.53;;
53618;SDS011;68717;53.040;18.488;2024-01-15T00:01:31;13.88;;;7.40;;
53618;SDS011;68717;53.040;18.488;2024-01-15T00:01:45;14.75;;;7.70;;
53618;SDS011;68717;53.040;18.488;2024-01-15T00:01:58;14.68;;;7.75;;
53618;SDS011;68717;53.040;18.488;2024-01-15T00:02:11;13.93;;;7.75;;
53618;SDS011;68717;53.040;18.488;2024-01-15T00:02:24;14.13;;;7.78;;
53618;SDS011;68717;53.040;18.488;2024-01-15T00:02:38;14.45;;;7.63;;
53618;SDS011;68717;53.040;18.488;2024-01-15T00:02:51;14.18;;;7.38;;
53618;SDS011;68717;53.040;18.488;2024-01-15T00:03:11;13.25;;;7.40;;
53618;SDS011;68717;53.040;18.488;2024-01-15T00:03:24;13.48;;;7.60;;
53618;SDS011;68717;53.040;18.488;2024-01-15T00:03:41;13.40;;;7.40;;
53618;SDS011;68717;53.040;18.488;2024-01-15T00:03:57;12.88;;;7.60;;
53618;SDS011;68717;53.040;18.488;2024-01-15T00:04:11;12.30;;;7.72;;
53618;SDS011;68717;53.040;18.488;2024-01-15T00:04:24;13.50;;;7.83;;
53618;SDS011;68717;53.040;18.488;2024-01-15T00:04:38;14.90;;;8.05;;
53618;SDS011;68717;53.040;18.488;2024-01-15T00:04:51;14.70;;;7.80;;
53618;SDS011;68717;53.040;18.488;2024-01-15T00:05:04;14.02;;;7.60;;
53618;SDS011;68717;53.040;18.488;2024-01-15T00:05:18;14.45;;;7.63;;
53618;SDS011;68717;53.040;18.488;2024-01-15T00:05:33;13.80;;;7.60;;
53618;SDS011;68717;53.040;18.488;2024-01-15T00:05:46;12.70;;;7.43;;
53618;SDS011;68717;53.040;18.488;2024-01-15T00:05:59;12.82;;;7.43;;
53618;SDS011;68717;53.040;18.488;2024-01-15T00:06:13;13.45;;;7.80;;
53618;SDS011;68717;53.040;18.488;2024-01-15T00:06:26;13.57;;;7.85;;
53618;SDS011;68717;53.040;18.488;2024-01-15T00:06:39;13.07;;;7.70;;
53618;SDS011;68717;53.040;18.488;2024-01-15T00:06:53;12.75;;;7.57;;
53618;SDS011;68717;53.040;18.488;2024-01-15T00:07:06;13.48;;;7.35;;
53618;SDS011;68717;53.040;18.488;2024-01-15T00:07:19;14.20;;;7.40;;
53618;SDS011;68717;53.040;18.488;2024-01-15T00:07:35;14.32;;;7.70;;
53618;SDS011;68717;53.040;18.488;2024-01-15T00:07:49;13.30;;;7.78;;
53618;SDS011;68717;53.040;18.488;2024-01-15T00:08:01;12.90;;;7.80;;
53618;SDS011;68717;53.040;18.488;2024-01-15T00:08:14;12.88;;;7.72;;
53618;SDS011;68717;53.040;18.488;2024-01-15T00:08:27;14.80;;;7.85;;
53618;SDS011;68717;53.040;18.488;2024-01-15T00:08:40;15.27;;;7.90;;
53618;SDS011;68717;53.040;18.488;2024-01-15T00:08:54;14.65;;;7.60;;
53618;SDS011;68717;53.040;18.488;2024-01-15T00:09:07;14.00;;;7.40;;
53618;SDS011;68717;53.040;18.488;2024-01-15T00:09:20;13.45;;;7.47;;
53618;SDS011;68717;53.040;18.488;2024-01-15T00:09:33;14.60;;;7.40;;
53618;SDS011;68717;53.040;18.488;2024-01-15T00:09:47;14.55;;;7.30;;
53618;SDS011;68717;53.040;18.488;2024-01-15T00:10:00;14.75;;;7.40;;
53618;SDS011;68717;53.040;18.488;2024-01-15T00:10:14;14.90;;;7.53;;
53618;SDS011;68717;53.040;18.488;2024-01-15T00:10:27;14.45;;;7.45;;
53618;SDS011;68717;53.040;18.488;2024-01-15T00:10:40;14.10;;;7.32;;
53618;SDS011;68717;53.040;18.488;2024-01-15T00:10:53;14.05;;;7.68;;
53618;SDS011;68717;53.040;18.488;2024-01-15T00:11:06;14.02;;;7.90;;
53618;SDS011;68717;53.040;18.488;2024-01-15T00:11:19;14.57;;;7.53;;
53618;SDS011;68717;53.040;18.488;2024-01-15T00:11:34;15.57;;;7.50;;
53618;SDS011;68717;53.040;18.488;2024-01-15T00:11:48;15.75;;;7.80;;
53618;SDS011;68717;53.040;18.488;2024-01-15T00:12:01;14.02;;;7.93;;
53618;SDS011;68717;53.040;18.488;2024-01-15T00:12:14;13.77;;;7.95;;
53618;SDS011;68717;53.040;18.488;2024-01-15T00:12:27;14.40;;;8.02;;
53618;SDS011;68717;53.040;18.488;2024-01-15T00:12:40;14.70;;;8.20;;
53618;SDS011;68717;53.040;18.488;2024-01-15T00:12:53;14.48;;;7.90;;
53618;SDS011;68717;53.040;18.488;2024-01-15T00:13:06;13.70;;;7.60;;
53618;SDS011;68717;53.040;18.488;2024-01-15T00:13:19;12.85;;;7.40;;
53618;SDS011;68717;53.040;18.488;2024-01-15T00:13:32;14.70;;;7.80;;
53618;SDS011;68717;53.040;18.488;2024-01-15T00:13:45;15.07;;;8.18;;
53618;SDS011;68717;53.040;18.488;2024-01-15T00:13:59;15.05;;;8.20;;
53618;SDS011;68717;53.040;18.488;2024-01-15T00:14:15;14.38;;;8.02;;
53618;SDS011;68717;53.040;18.488;2024-01-15T00:14:32;15.05;;;8.05;;
53618;SDS011;68717;53.040;18.488;2024-01-15T00:14:45;15.02;;;8.10;;
53618;SDS011;68717;53.040;18.488;2024-01-15T00:14:58;13.70;;;7.82;;
53618;SDS011;68717;53.040;18.488;2024-01-15T00:15:11;14.55;;;7.93;;
53618;SDS011;68717;53.040;18.488;2024-01-15T00:15:25;15.20;;;8.02;;
53618;SDS011;68717;53.040;18.488;2024-01-15T00:15:40;14.65;;;7.97;;
53618;SDS011;68717;53.040;18.488;2024-01-15T00:15:54;14.93;;;8.13;;
53618;SDS011;68717;53.040;18.488;2024-01-15T00:16:10;14.40;;;7.93;;
53618;SDS011;68717;53.040;18.488;2024-01-15T00:16:24;13.55;;;7.88;;
53618;SDS011;68717;53.040;18.488;2024-01-15T00:16:37;13.48;;;8.10;;
53618;SDS011;68717;53.040;18.488;2024-01-15T00:16:52;14.15;;;8.30;;
53618;SDS011;68717;53.040;18.488;2024-01-15T00:17:07;14.75;;;8.13;;
53618;SDS011;68717;53.040;18.488;2024-01-15T00:17:20;15.18;;;8.27;;
53618;SDS011;68717;53.040;18.488;2024-01-15T00:17:34;15.48;;;8.50;;
53618;SDS011;68717;53.040;18.488;2024-01-15T00:17:47;14.30;;;8.60;;
53618;SDS011;68717;53.040;18.488;2024-01-15T00:18:00;13.30;;;8.52;;
53618;SDS011;68717;53.040;18.488;2024-01-15T00:18:14;14.20;;;8.50;;
53618;SDS011;68717;53.040;18.488;2024-01-15T00:18:28;15.30;;;8.65;;
53618;SDS011;68717;53.040;18.488;2024-01-15T00:18:41;14.57;;;8.55;;
53618;SDS011;68717;53.040;18.488;2024-01-15T00:18:55;14.52;;;8.45;;
53618;SDS011;68717;53.040;18.488;2024-01-15T00:19:07;15.02;;;8.73;;
53618;SDS011;68717;53.040;18.488;2024-01-15T00:19:21;16.58;;;9.50;;
53618;SDS011;68717;53.040;18.488;2024-01-15T00:19:34;21.40;;;11.18;;
53618;SDS011;68717;53.040;18.488;2024-01-15T00:19:47;33.80;;;14.73;;
53618;SDS011;68717;53.040;18.488;2024-01-15T00:20:00;52.10;;;20.02;;
53618;SDS011;68717;53.040;18.488;2024-01-15T00:20:13;62.85;;;23.73;;
53618;SDS011;68717;53.040;18.488;2024-01-15T00:20:27;60.95;;;23.83;;
53618;SDS011;68717;53.040;18.488;2024-01-15T00:20:42;52.30;;;21.10;;
53618;SDS011;68717;53.040;18.488;2024-01-15T00:20:55;40.97;;;16.92;;
53618;SDS011;68717;53.040;18.488;2024-01-15T00:21:09;39.55;;;15.75;;
53618;SDS011;68717;53.040;18.488;2024-01-15T00:21:22;47.08;;;17.73;;
53618;SDS011;68717;53.040;18.488;2024-01-15T00:21:35;51.30;;;19.05;;
53618;SDS011;68717;53.040;18.488;2024-01-15T00:21:48;50.13;;;18.95;;
53618;SDS011;68717;53.040;18.488;2024-01-15T00:22:02;44.85;;;17.63;;
53618;SDS011;68717;53.040;18.488;2024-01-15T00:22:15;39.72;;;16.10;;
53618;SDS011;68717;53.040;18.488;2024-01-15T00:22:28;49.47;;;18.02;;
53618;SDS011;68717;53.040;18.488;2024-01-15T00:22:43;62.75;;;20.67;;
53618;SDS011;68717;53.040;18.488;2024-01-15T00:22:56;65.22;;;21.65;;
53618;SDS011;68717;53.040;18.488;2024-01-15T00:23:09;62.25;;;20.98;;
53618;SDS011;68717;53.040;18.488;2024-01-15T00:23:25;57.22;;;19.80;;
53618;SDS011;68717;53.040;18.488;2024-01-15T00:23:39;54.55;;;19.10;;
53618;SDS011;68717;53.040;18.488;2024-01-15T00:23:55;53.20;;;19.00;;
53618;SDS011;68717;53.040;18.488;2024-01-15T00:24:08;54.10;;;19.52;;
53618;SDS011;68717;53.040;18.488;2024-01-15T00:24:21;55.72;;;19.80;;
53618;SDS011;68717;53.040;18.488;2024-01-15T00:24:35;55.13;;;19.33;;
53618;SDS011;68717;53.040;18.488;2024-01-15T00:24:48;59.10;;;20.67;;
53618;SDS011;68717;53.040;18.488;2024-01-15T00:25:01;62.40;;;21.38;;
53618;SDS011;68717;53.040;18.488;2024-01-15T00:25:15;68.47;;;23.33;;
53618;SDS011;68717;53.040;18.488;2024-01-15T00:25:28;76.72;;;24.48;;
53618;SDS011;68717;53.040;18.488;2024-01-15T00:25:41;71.90;;;22.33;;
53618;SDS011;68717;53.040;18.488;2024-01-15T00:25:54;79.85;;;24.02;;
53618;SDS011;68717;53.040;18.488;2024-01-15T00:26:07;93.28;;;27.20;;
53618;SDS011;68717;53.040;18.488;2024-01-15T00:26:22;96.43;;;29.40;;
53618;SDS011;68717;53.040;18.488;2024-01-15T00:26:35;99.90;;;30.13;;
53618;SDS011;68717;53.040;18.488;2024-01-15T00:26:48;102.63;;;30.55;;
53618;SDS011;68717;53.040;18.488;2024-01-15T00:27:01;98.28;;;30.60;;
53618;SDS011;68717;53.040;18.488;2024-01-15T00:27:14;88.07;;;29.33;;
53618;SDS011;68717;53.040;18.488;2024-01-15T00:27:27;72.15;;;25.25;;
53618;SDS011;68717;53.040;18.488;2024-01-15T00:27:40;61.60;;;20.95;;
53618;SDS011;68717;53.040;18.488;2024-01-15T00:27:54;54.17;;;19.40;;
53618;SDS011;68717;53.040;18.488;2024-01-15T00:28:10;53.15;;;19.80;;
53618;SDS011;68717;53.040;18.488;2024-01-15T00:28:23;51.53;;;19.35;;
53618;SDS011;68717;53.040;18.488;2024-01-15T00:28:36;51.05;;;19.25;;
53618;SDS011;68717;53.040;18.488;2024-01-15T00:28:50;52.92;;;20.23;;
53618;SDS011;68717;53.040;18.488;2024-01-15T00:29:03;54.63;;;20.88;;
53618;SDS011;68717;53.040;18.488;2024-01-15T00:29:16;54.53;;;20.08;;
53618;SDS011;68717;53.040;18.488;2024-01-15T00:29:29;49.33;;;18.55;;
53618;SDS011;68717;53.040;18.488;2024-01-15T00:29:43;47.92;;;18.58;;
53618;SDS011;68717;53.040;18.488;2024-01-15T00:29:56;51.33;;;19.67;;
53618;SDS011;68717;53.040;18.488;2024-01-15T00:30:10;54.10;;;19.65;;
53618;SDS011;68717;53.040;18.488;2024-01-15T00:30:24;47.95;;;17.30;;
53618;SDS011;68717;53.040;18.488;2024-01-15T00:30:37;39.17;;;15.43;;
53618;SDS011;68717;53.040;18.488;2024-01-15T00:30:50;35.80;;;14.68;;
53618;SDS011;68717;53.040;18.488;2024-01-15T00:31:04;33.90;;;14.18;;
53618;SDS011;68717;53.040;18.488;2024-01-15T00:31:18;39.38;;;15.13;;
53618;SDS011;68717;53.040;18.488;2024-01-15T00:31:31;45.53;;;16.92;;
53618;SDS011;68717;53.040;18.488;2024-01-15T00:31:45;51.08;;;18.88;;
53618;SDS011;68717;53.040;18.488;2024-01-15T00:31:59;55.13;;;19.85;;
53618;SDS011;68717;53.040;18.488;2024-01-15T00:32:12;54.00;;;19.00;;
53618;SDS011;68717;53.040;18.488;2024-01-15T00:32:25;56.10;;;18.77;;
53618;SDS011;68717;53.040;18.488;2024-01-15T00:32:39;60.28;;;20.40;;
53618;SDS011;68717;53.040;18.488;2024-01-15T00:32:52;73.97;;;23.52;;
53618;SDS011;68717;53.040;18.488;2024-01-15T00:33:08;72.50;;;23.92;;
53618;SDS011;68717;53.040;18.488;2024-01-15T00:33:23;68.60;;;23.38;;
53618;SDS011;68717;53.040;18.488;2024-01-15T00:33:37;62.80;;;21.60;;
53618;SDS011;68717;53.040;18.488;2024-01-15T00:33:50;54.58;;;19.55;;
53618;SDS011;68717;53.040;18.488;2024-01-15T00:34:03;51.70;;;18.92;;
53618;SDS011;68717;53.040;18.488;2024-01-15T00:34:16;50.22;;;18.55;;
53618;SDS011;68717;53.040;18.488;2024-01-15T00:34:29;51.75;;;18.88;;
53618;SDS011;68717;53.040;18.488;2024-01-15T00:34:43;57.53;;;20.38;;
53618;SDS011;68717;53.040;18.488;2024-01-15T00:34:56;65.25;;;22.10;;
53618;SDS011;68717;53.040;18.488;2024-01-15T00:35:09;64.20;;;21.75;;
53618;SDS011;68717;53.040;18.488;2024-01-15T00:35:23;52.05;;;18.92;;
53618;SDS011;68717;53.040;18.488;2024-01-15T00:35:37;43.65;;;16.75;;
53618;SDS011;68717;53.040;18.488;2024-01-15T00:35:50;36.70;;;14.80;;
53618;SDS011;68717;53.040;18.488;2024-01-15T00:36:04;36.45;;;14.65;;
53618;SDS011;68717;53.040;18.488;2024-01-15T00:36:17;40.00;;;15.57;;
53618;SDS011;68717;53.040;18.488;2024-01-15T00:36:30;48.63;;;17.45;;
53618;SDS011;68717;53.040;18.488;2024-01-15T00:36:44;54.83;;;19.42;;
53618;SDS011;68717;53.040;18.488;2024-01-15T00:36:57;56.28;;;20.38;;
53618;SDS011;68717;53.040;18.488;2024-01-15T00:37:10;51.88;;;19.48;;
53618;SDS011;68717;53.040;18.488;2024-01-15T00:37:23;46.53;;;18.30;;
53618;SDS011;68717;53.040;18.488;2024-01-15T00:37:36;46.17;;;18.08;;
53618;SDS011;68717;53.040;18.488;2024-01-15T00:37:49;47.70;;;18.23;;
53618;SDS011;68717;53.040;18.488;2024-01-15T00:38:03;45.42;;;17.75;;
53618;SDS011;68717;53.040;18.488;2024-01-15T00:38:16;42.75;;;17.45;;
53618;SDS011;68717;53.040;18.488;2024-01-15T00:38:30;43.70;;;18.10;;
53618;SDS011;68717;53.040;18.488;2024-01-15T00:38:43;45.30;;;18.58;;
53618;SDS011;68717;53.040;18.488;2024-01-15T00:38:56;50.17;;;20.17;;
53618;SDS011;68717;53.040;18.488;2024-01-15T00:39:10;56.28;;;21.95;;
53618;SDS011;68717;53.040;18.488;2024-01-15T00:39:23;53.97;;;21.20;;
53618;SDS011;68717;53.040;18.488;2024-01-15T00:39:36;48.92;;;19.42;;
53618;SDS011;68717;53.040;18.488;2024-01-15T00:39:50;43.08;;;17.80;;
53618;SDS011;68717;53.040;18.488;2024-01-15T00:40:04;37.28;;;16.35;;
53618;SDS011;68717;53.040;18.488;2024-01-15T00:40:18;35.47;;;15.43;;
53618;SDS011;68717;53.040;18.488;2024-01-15T00:40:31;36.88;;;16.08;;
53618;SDS011;68717;53.040;18.488;2024-01-15T00:40:44;37.22;;;16.52;;
53618;SDS011;68717;53.040;18.488;2024-01-15T00:40:57;36.90;;;16.20;;
53618;SDS011;68717;53.040;18.488;2024-01-15T00:41:10;37.65;;;16.42;;
53618;SDS011;68717;53.040;18.488;2024-01-15T00:41:24;39.17;;;16.83;;
53618;SDS011;68717;53.040;18.488;2024-01-15T00:41:37;42.45;;;17.73;;
53618;SDS011;68717;53.040;18.488;2024-01-15T00:41:50;44.08;;;19.05;;
53618;SDS011;68717;53.040;18.488;2024-01-15T00:42:03;51.95;;;21.13;;
53618;SDS011;68717;53.040;18.488;2024-01-15T00:42:17;60.00;;;23.55;;
53618;SDS011;68717;53.040;18.488;2024-01-15T00:42:30;59.22;;;23.30;;
53618;SDS011;68717;53.040;18.488;2024-01-15T00:42:43;48.58;;;19.88;;
53618;SDS011;68717;53.040;18.488;2024-01-15T00:42:56;43.90;;;18.55;;
53618;SDS011;68717;53.040;18.488;2024-01-15T00:43:10;43.30;;;18.88;;
53618;SDS011;68717;53.040;18.488;2024-01-15T00:43:23;40.95;;;18.27;;
53618;SDS011;68717;53.040;18.488;2024-01-15T00:43:36;40.63;;;18.02;;
53618;SDS011;68717;53.040;18.488;2024-01-15T00:43:49;41.90;;;19.35;;
53618;SDS011;68717;53.040;18.488;2024-01-15T00:44:02;48.30;;;20.73;;
53618;SDS011;68717;53.040;18.488;2024-01-15T00:44:16;49.35;;;20.50;;
53618;SDS011;68717;53.040;18.488;2024-01-15T00:44:29;45.33;;;19.35;;
53618;SDS011;68717;53.040;18.488;2024-01-15T00:44:42;41.78;;;18.05;;
53618;SDS011;68717;53.040;18.488;2024-01-15T00:44:56;42.55;;;18.33;;
53618;SDS011;68717;53.040;18.488;2024-01-15T00:45:09;42.98;;;18.40;;
53618;SDS011;68717;53.040;18.488;2024-01-15T00:45:23;40.88;;;17.42;;
53618;SDS011;68717;53.040;18.488;2024-01-15T00:45:36;36.28;;;16.23;;
53618;SDS011;68717;53.040;18.488;2024-01-15T00:45:49;30.13;;;14.80;;
53618;SDS011;68717;53.040;18.488;2024-01-15T00:46:03;27.83;;;13.93;;
53618;SDS011;68717;53.040;18.488;2024-01-15T00:46:16;29.83;;;14.40;;
53618;SDS011;68717;53.040;18.488;2024-01-15T00:46:29;31.50;;;14.90;;
53618;SDS011;68717;53.040;18.488;2024-01-15T00:46:44;31.80;;;14.93;;
53618;SDS011;68717;53.040;18.488;2024-01-15T00:46:57;33.78;;;16.00;;
53618;SDS011;68717;53.040;18.488;2024-01-15T00:47:10;35.42;;;17.23;;
53618;SDS011;68717;53.040;18.488;2024-01-15T00:47:23;37.30;;;18.55;;
53618;SDS011;68717;53.040;18.488;2024-01-15T00:47:36;36.97;;;18.85;;
53618;SDS011;68717;53.040;18.488;2024-01-15T00:47:50;35.80;;;18.33;;
53618;SDS011;68717;53.040;18.488;2024-01-15T00:48:03;33.53;;;17.30;;
53618;SDS011;68717;53.040;18.488;2024-01-15T00:48:17;33.42;;;16.95;;
53618;SDS011;68717;53.040;18.488;2024-01-15T00:48:32;35.28;;;17.58;;
53618;SDS011;68717;53.040;18.488;2024-01-15T00:48:46;36.30;;;17.90;;
53618;SDS011;68717;53.040;18.488;2024-01-15T00:49:00;42.35;;;21.13;;
53618;SDS011;68717;53.040;18.488;2024-01-15T00:49:13;44.28;;;22.42;;
53618;SDS011;68717;53.040;18.488;2024-01-15T00:49:27;35.80;;;18.90;;
53618;SDS011;68717;53.040;18.488;2024-01-15T00:49:40;28.45;;;15.45;;
53618;SDS011;68717;53.040;18.488;2024-01-15T00:49:53;23.05;;;13.23;;
53618;SDS011;68717;53.040;18.488;2024-01-15T00:50:06;21.38;;;12.45;;
53618;SDS011;68717;53.040;18.488;2024-01-15T00:50:20;23.73;;;13.98;;
53618;SDS011;68717;53.040;18.488;2024-01-15T00:50:34;28.17;;;16.15;;
53618;SDS011;68717;53.040;18.488;2024-01-15T00:50:47;27.98;;;16.17;;
53618;SDS011;68717;53.040;18.488;2024-01-15T00:51:06;24.20;;;14.05;;
53618;SDS011;68717;53.040;18.488;2024-01-15T00:51:20;24.00;;;13.70;;
53618;SDS011;68717;53.040;18.488;2024-01-15T00:51:33;25.15;;;15.05;;
53618;SDS011;68717;53.040;18.488;2024-01-15T00:51:46;25.08;;;15.13;;
53618;SDS011;68717;53.040;18.488;2024-01-15T00:51:59;26.73;;;14.75;;
53618;SDS011;68717;53.040;18.488;2024-01-15T00:52:12;28.15;;;14.88;;
53618;SDS011;68717;53.040;18.488;2024-01-15T00:52:26;27.02;;;14.48;;
53618;SDS011;68717;53.040;18.488;2024-01-15T00:52:39;25.08;;;14.00;;
53618;SDS011;68717;53.040;18.488;2024-01-15T00:52:52;23.67;;;14.20;;
53618;SDS011;68717;53.040;18.488;2024-01-15T00:53:06;30.75;;;17.25;;
53618;SDS011;68717;53.040;18.488;2024-01-15T00:53:19;39.22;;;21.00;;
53618;SDS011;68717;53.040;18.488;2024-01-15T00:53:32;41.20;;;22.38;;
53618;SDS011;68717;53.040;18.488;2024-01-15T00:53:45;39.13;;;21.90;;
53618;SDS011;68717;53.040;18.488;2024-01-15T00:53:58;37.67;;;20.70;;
53618;SDS011;68717;53.040;18.488;2024-01-15T00:54:11;38.50;;;20.23;;
53618;SDS011;68717;53.040;18.488;2024-01-15T00:54:25;36.40;;;19.42;;
53618;SDS011;68717;53.040;18.488;2024-01-15T00:54:38;33.75;;;18.42;;
53618;SDS011;68717;53.040;18.488;2024-01-15T00:54:52;33.13;;;18.52;;
53618;SDS011;68717;53.040;18.488;2024-01-15T00:55:06;35.13;;;18.77;;
53618;SDS011;68717;53.040;18.488;2024-01-15T00:55:19;34.80;;;18.08;;
53618;SDS011;68717;53.040;18.488;2024-01-15T00:55:32;31.40;;;16.67;;
53618;SDS011;68717;53.040;18.488;2024-01-15T00:55:45;30.52;;;16.20;;
53618;SDS011;68717;53.040;18.488;2024-01-15T00:55:58;30.75;;;16.40;;
53618;SDS011;68717;53.040;18.488;2024-01-15T00:56:11;31.08;;;16.52;;
53618;SDS011;68717;53.040;18.488;2024-01-15T00:56:24;31.85;;;16.60;;
53618;SDS011;68717;53.040;18.488;2024-01-15T00:56:39;30.83;;;16.48;;
53618;SDS011;68717;53.040;18.488;2024-01-15T00:56:52;28.77;;;15.68;;
53618;SDS011;68717;53.040;18.488;2024-01-15T00:57:07;27.67;;;14.88;;
53618;SDS011;68717;53.040;18.488;2024-01-15T00:57:20;26.67;;;14.65;;
53618;SDS011;68717;53.040;18.488;2024-01-15T00:57:33;27.90;;;15.10;;
53618;SDS011;68717;53.040;18.488;2024-01-15T00:57:47;30.10;;;15.27;;
53618;SDS011;68717;53.040;18.488;2024-01-15T00:58:00;32.58;;;16.00;;
53618;SDS011;68717;53.040;18.488;2024-01-15T00:58:14;32.38;;;16.60;;
53618;SDS011;68717;53.040;18.488;2024-01-15T00:58:28;31.98;;;16.83;;
53618;SDS011;68717;53.040;18.488;2024-01-15T00:58:41;32.00;;;16.55;;
53618;SDS011;68717;53.040;18.488;2024-01-15T00:58:55;31.05;;;16.40;;
53618;SDS011;68717;53.040;18.488;2024-01-15T00:59:08;27.55;;;15.10;;
53618;SDS011;68717;53.040;18.488;2024-01-15T00:59:22;23.33;;;13.00;;
53618;SDS011;68717;53.040;18.488;2024-01-15T00:59:38;21.95;;;12.43;;
53618;SDS011;68717;53.040;18.488;2024-01-15T00:59:51;24.52;;;13.32;;
53618;SDS011;68717;53.040;18.488;2024-01-15T01:00:05;28.05;;;14.70;;
53618;SDS011;68717;53.040;18.488;2024-01-15T01:00:19;27.40;;;15.00;;
53618;SDS011;68717;53.040;18.488;2024-01-15T01:00:34;25.15;;;14.55;;
53618;SDS011;68717;53.040;18.488;2024-01-15T01:00:47;28.55;;;15.40;;
53618;SDS011;68717;53.040;18.488;2024-01-15T01:01:00;31.40;;;16.20;;
53618;SDS011;68717;53.040;18.488;2024-01-15T01:01:13;32.08;;;16.65;;
53618;SDS011;68717;53.040;18.488;2024-01-15T01:01:27;31.85;;;16.73;;
53618;SDS011;68717;53.040;18.488;2024-01-15T01:01:40;32.72;;;16.98;;
53618;SDS011;68717;53.040;18.488;2024-01-15T01:01:55;32.58;;;17.00;;
53618;SDS011;68717;53.040;18.488;2024-01-15T01:02:08;31.65;;;16.98;;
53618;SDS011;68717;53.040;18.488;2024-01-15T01:02:21;30.65;;;17.00;;
53618;SDS011;68717;53.040;18.488;2024-01-15T01:02:34;28.40;;;15.60;;
53618;SDS011;68717;53.040;18.488;2024-01-15T01:02:48;27.23;;;14.80;;
53618;SDS011;68717;53.040;18.488;2024-01-15T01:03:02;30.67;;;16.58;;
53618;SDS011;68717;53.040;18.488;2024-01-15T01:03:15;32.92;;;17.30;;
53618;SDS011;68717;53.040;18.488;2024-01-15T01:03:28;29.42;;;15.57;;
53618;SDS011;68717;53.040;18.488;2024-01-15T01:03:44;23.90;;;13.38;;
53618;SDS011;68717;53.040;18.488;2024-01-15T01:03:57;21.70;;;12.55;;
53618;SDS011;68717;53.040;18.488;2024-01-15T01:04:10;24.98;;;14.05;;
53618;SDS011;68717;53.040;18.488;2024-01-15T01:04:26;26.90;;;14.95;;
53618;SDS011;68717;53.040;18.488;2024-01-15T01:04:41;25.63;;;13.93;;
53618;SDS011;68717;53.040;18.488;2024-01-15T01:04:54;24.40;;;13.50;;
53618;SDS011;68717;53.040;18.488;2024-01-15T01:05:09;27.45;;;14.63;;
53618;SDS011;68717;53.040;18.488;2024-01-15T01:05:22;33.33;;;16.90;;
53618;SDS011;68717;53.040;18.488;2024-01-15T01:05:35;33.45;;;17.73;;
53618;SDS011;68717;53.040;18.488;2024-01-15T01:05:48;32.90;;;17.40;;
53618;SDS011;68717;53.040;18.488;2024-01-15T01:06:02;32.58;;;17.13;;
53618;SDS011;68717;53.040;18.488;2024-01-15T01:06:16;29.95;;;16.17;;
53618;SDS011;68717;53.040;18.488;2024-01-15T01:06:29;26.40;;;14.30;;
53618;SDS011;68717;53.040;18.488;2024-01-15T01:06:45;23.67;;;13.13;;
53618;SDS011;68717;53.040;18.488;2024-01-15T01:06:58;24.15;;;13.77;;
53618;SDS011;68717;53.040;18.488;2024-01-15T01:07:11;27.65;;;15.48;;
53618;SDS011;68717;53.040;18.488;2024-01-15T01:07:24;31.08;;;16.58;;
53618;SDS011;68717;53.040;18.488;2024-01-15T01:07:38;33.03;;;17.13;;
53618;SDS011;68717;53.040;18.488;2024-01-15T01:07:51;33.00;;;16.98;;
53618;SDS011;68717;53.040;18.488;2024-01-15T01:08:04;30.13;;;15.80;;
53618;SDS011;68717;53.040;18.488;2024-01-15T01:08:17;27.75;;;15.07;;
53618;SDS011;68717;53.040;18.488;2024-01-15T01:08:31;29.15;;;15.70;;
53618;SDS011;68717;53.040;18.488;2024-01-15T01:08:44;30.85;;;16.15;;
53618;SDS011;68717;53.040;18.488;2024-01-15T01:09:00;32.08;;;16.52;;
53618;SDS011;68717;53.040;18.488;2024-01-15T01:09:13;33.92;;;17.55;;
53618;SDS011;68717;53.040;18.488;2024-01-15T01:09:26;34.65;;;18.42;;
53618;SDS011;68717;53.040;18.488;2024-01-15T01:09:42;33.20;;;18.02;;
53618;SDS011;68717;53.040;18.488;2024-01-15T01:09:56;34.22;;;18.27;;
53618;SDS011;68717;53.040;18.488;2024-01-15T01:10:10;33.08;;;18.05;;
53618;SDS011;68717;53.040;18.488;2024-01-15T01:10:23;32.88;;;17.83;;
53618;SDS011;68717;53.040;18.488;2024-01-15T01:10:36;32.30;;;17.48;;
53618;SDS011;68717;53.040;18.488;2024-01-15T01:10:50;30.00;;;16.40;;
53618;SDS011;68717;53.040;18.488;2024-01-15T01:11:03;25.20;;;14.43;;
53618;SDS011;68717;53.040;18.488;2024-01-15T01:11:16;21.27;;;12.60;;
53618;SDS011;68717;53.040;18.488;2024-01-15T01:11:29;19.23;;;11.27;;
53618;SDS011;68717;53.040;18.488;2024-01-15T01:11:42;20.00;;;11.10;;
53618;SDS011;68717;53.040;18.488;2024-01-15T01:11:56;21.02;;;11.68;;
53618;SDS011;68717;53.040;18.488;2024-01-15T01:12:09;21.35;;;12.40;;
53618;SDS011;68717;53.040;18.488;2024-01-15T01:12:22;21.52;;;12.68;;
53618;SDS011;68717;53.040;18.488;2024-01-15T01:12:35;22.17;;;13.20;;
53618;SDS011;68717;53.040;18.488;2024-01-15T01:12:48;22.20;;;13.20;;
53618;SDS011;68717;53.040;18.488;2024-01-15T01:13:01;22.08;;;13.10;;
53618;SDS011;68717;53.040;18.488;2024-01-15T01:13:14;21.50;;;12.70;;
53618;SDS011;68717;53.040;18.488;2024-01-15T01:13:27;20.02;;;11.93;;
53618;SDS011;68717;53.040;18.488;2024-01-15T01:13:40;20.45;;;11.45;;
53618;SDS011;68717;53.040;18.488;2024-01-15T01:13:53;20.60;;;11.77;;
53618;SDS011;68717;53.040;18.488;2024-01-15T01:14:08;20.95;;;12.88;;
53618;SDS011;68717;53.040;18.488;2024-01-15T01:14:21;21.08;;;12.50;;
53618;SDS011;68717;53.040;18.488;2024-01-15T01:14:35;19.85;;;11.52;;
53618;SDS011;68717;53.040;18.488;2024-01-15T01:14:48;19.38;;;11.65;;
53618;SDS011;68717;53.040;18.488;2024-01-15T01:15:01;22.17;;;12.80;;
53618;SDS011;68717;53.040;18.488;2024-01-15T01:15:14;26.17;;;14.90;;
53618;SDS011;68717;53.040;18.488;2024-01-15T01:15:27;31.92;;;17.60;;
53618;SDS011;68717;53.040;18.488;2024-01-15T01:15:40;38.35;;;20.92;;
53618;SDS011;68717;53.040;18.488;2024-01-15T01:15:53;42.90;;;23.30;;
53618;SDS011;68717;53.040;18.488;2024-01-15T01:16:08;40.38;;;22.25;;
53618;SDS011;68717;53.040;18.488;2024-01-15T01:16:21;37.40;;;20.95;;
53618;SDS011;68717;53.040;18.488;2024-01-15T01:16:35;41.50;;;23.10;;
53618;SDS011;68717;53.040;18.488;2024-01-15T01:16:51;53.78;;;29.10;;
53618;SDS011;68717;53.040;18.488;2024-01-15T01:17:04;54.85;;;30.15;;
53618;SDS011;68717;53.040;18.488;2024-01-15T01:17:18;46.63;;;26.48;;
53618;SDS011;68717;53.040;18.488;2024-01-15T01:17:31;40.65;;;23.02;;
53618;SDS011;68717;53.040;18.488;2024-01-15T01:17:44;35.88;;;19.63;;
53618;SDS011;68717;53.040;18.488;2024-01-15T01:17:59;31.65;;;17.83;;
53618;SDS011;68717;53.040;18.488;2024-01-15T01:18:12;30.85;;;18.35;;
53618;SDS011;68717;53.040;18.488;2024-01-15T01:18:25;29.88;;;17.60;;
53618;SDS011;68717;53.040;18.488;2024-01-15T01:18:39;27.90;;;16.55;;
53618;SDS011;68717;53.040;18.488;2024-01-15T01:18:54;26.85;;;16.00;;
53618;SDS011;68717;53.040;18.488;2024-01-15T01:19:07;26.90;;;15.98;;